createdAt,value
2023-03-15T00:00:14.747Z,39.58
2023-03-15T00:01:14.851Z,39.56
2023-03-15T00:02:14.808Z,39.62
2023-03-15T00:03:14.847Z,39.59
2023-03-15T00:04:14.836Z,39.58
2023-03-15T00:05:14.870Z,39.58
2023-03-15T00:06:14.890Z,39.54
2023-03-15T00:07:14.895Z,39.54
2023-03-15T00:08:14.925Z,39.56
2023-03-15T00:09:14.938Z,39.52
2023-03-15T00:10:14.980Z,39.50
2023-03-15T00:11:14.976Z,39.54
2023-03-15T00:12:14.994Z,39.52
2023-03-15T00:13:15.103Z,39.57
2023-03-15T00:14:16.070Z,39.47
2023-03-15T00:15:15.068Z,39.47
2023-03-15T00:16:15.119Z,39.41
2023-03-15T00:17:15.098Z,39.42
2023-03-15T00:18:15.127Z,39.45
2023-03-15T00:19:15.156Z,39.47
2023-03-15T00:20:15.197Z,39.47
2023-03-15T00:21:15.207Z,39.41
2023-03-15T00:22:15.206Z,39.46
2023-03-15T00:23:15.232Z,39.40
2023-03-15T00:24:15.253Z,39.41
2023-03-15T00:25:15.274Z,39.43
2023-03-15T00:26:15.306Z,39.43
2023-03-15T00:27:15.325Z,39.38
2023-03-15T00:28:15.356Z,39.40
2023-03-15T00:29:15.371Z,39.41
2023-03-15T00:30:15.391Z,39.34
2023-03-15T00:31:15.417Z,39.40
2023-03-15T00:32:15.438Z,39.37
2023-03-15T00:33:15.470Z,39.42
2023-03-15T00:34:15.489Z,39.37
2023-03-15T00:35:15.512Z,39.40
2023-03-15T00:36:15.558Z,39.44
2023-03-15T00:37:15.558Z,39.39
2023-03-15T00:38:15.587Z,39.34
2023-03-15T00:39:15.683Z,39.30
2023-03-15T00:40:15.625Z,39.31
2023-03-15T00:41:15.659Z,39.39
2023-03-15T00:42:15.676Z,39.37
2023-03-15T00:43:15.696Z,39.31
2023-03-15T00:44:15.718Z,39.25
2023-03-15T00:45:15.734Z,39.28
2023-03-15T00:46:15.787Z,39.29
2023-03-15T00:47:15.784Z,39.29
2023-03-15T00:48:15.881Z,39.23
2023-03-15T00:49:15.845Z,39.28
2023-03-15T00:50:15.867Z,39.31
2023-03-15T00:51:15.895Z,39.24
2023-03-15T00:52:15.924Z,39.28
2023-03-15T00:53:15.939Z,39.29
2023-03-15T00:54:15.967Z,39.24
2023-03-15T00:55:15.988Z,39.27
2023-03-15T00:56:16.022Z,39.22
2023-03-15T00:57:16.115Z,39.24
2023-03-15T00:58:16.092Z,39.23
2023-03-15T00:59:16.112Z,39.20
2023-03-15T01:00:16.129Z,39.23
2023-03-15T01:01:16.145Z,39.20
2023-03-15T01:02:16.174Z,39.20
2023-03-15T01:03:16.335Z,39.23
2023-03-15T01:04:16.230Z,39.20
2023-03-15T01:05:16.258Z,39.20
2023-03-15T01:06:16.298Z,39.18
2023-03-15T01:07:16.298Z,39.18
2023-03-15T01:08:16.323Z,39.22
2023-03-15T01:09:16.391Z,39.20
2023-03-15T01:10:16.383Z,39.24
2023-03-15T01:11:16.388Z,39.14
2023-03-15T01:12:16.419Z,39.15
2023-03-15T01:13:16.442Z,39.15
2023-03-15T01:14:16.460Z,39.13
2023-03-15T01:15:16.488Z,39.12
2023-03-15T01:16:16.552Z,39.12
2023-03-15T01:18:16.589Z,39.13
2023-03-15T01:19:16.643Z,39.13
2023-03-15T01:20:16.633Z,39.11
2023-03-15T01:21:16.682Z,39.10
2023-03-15T01:22:16.691Z,39.14
2023-03-15T01:23:16.725Z,39.09
2023-03-15T01:24:16.764Z,39.10
2023-03-15T01:25:16.776Z,39.07
2023-03-15T01:26:16.811Z,39.07
2023-03-15T01:27:16.844Z,39.07
2023-03-15T09:51:21.199Z,40.79
2023-03-15T10:11:20.688Z,39.55
2023-03-15T10:12:21.211Z,39.50
2023-03-15T10:13:20.642Z,39.45
2023-03-15T10:14:20.650Z,39.39
2023-03-15T10:15:20.666Z,39.35
2023-03-15T10:17:20.688Z,39.22
2023-03-15T10:18:20.705Z,39.17
2023-03-15T10:19:20.718Z,39.08
2023-03-15T10:20:20.827Z,39.02
2023-03-15T10:21:20.726Z,39.01
2023-03-15T10:22:20.833Z,38.96
2023-03-15T10:23:20.756Z,38.89
2023-03-15T10:24:20.776Z,38.79
2023-03-15T10:25:20.767Z,38.73
2023-03-15T10:26:20.783Z,38.67
2023-03-15T10:27:20.782Z,38.61
2023-03-15T10:28:20.789Z,38.55
2023-03-15T10:29:20.802Z,38.49
2023-03-15T10:30:20.881Z,38.50
2023-03-15T10:31:22.469Z,38.40
2023-03-15T10:33:20.775Z,38.25
2023-03-15T10:35:20.735Z,38.16
2023-03-15T10:36:20.750Z,38.16
2023-03-15T10:37:20.702Z,38.06
2023-03-15T10:38:21.216Z,37.96
2023-03-15T10:39:20.664Z,37.95
2023-03-15T10:40:20.690Z,37.89
2023-03-15T10:41:28.769Z,37.84
2023-03-15T10:42:21.605Z,37.76
2023-03-15T10:50:21.251Z,37.31
2023-03-15T10:54:21.222Z,37.01
2023-03-15T11:11:20.714Z,35.52
2023-03-15T11:17:20.042Z,35.00
2023-03-15T11:18:20.025Z,34.99
2023-03-15T11:20:20.103Z,34.89
2023-03-15T11:21:20.114Z,34.81
2023-03-15T11:22:20.126Z,34.69
2023-03-15T11:23:20.139Z,34.48
2023-03-15T11:24:20.202Z,34.50
2023-03-15T11:25:20.183Z,34.36
2023-03-15T11:27:20.270Z,34.12
2023-03-15T11:35:20.623Z,33.44
2023-03-15T11:36:20.659Z,33.34
2023-03-15T11:37:20.694Z,33.26
2023-03-15T11:38:20.761Z,33.19
2023-03-15T11:40:20.839Z,32.98
2023-03-15T11:41:20.889Z,32.78
2023-03-15T11:42:20.979Z,32.79
2023-03-15T11:43:20.973Z,32.77
2023-03-15T11:44:21.016Z,32.68
2023-03-15T11:45:21.103Z,32.53
2023-03-15T11:46:21.108Z,32.51
2023-03-15T11:47:21.152Z,32.31
2023-03-15T11:48:21.208Z,32.26
2023-03-15T11:49:21.304Z,32.27
2023-03-15T11:50:21.293Z,32.26
2023-03-15T11:51:21.325Z,32.03
2023-03-15T11:52:21.352Z,31.90
2023-03-15T11:53:21.402Z,32.01
2023-03-15T11:54:21.419Z,31.95
2023-03-15T11:55:21.538Z,31.91
2023-03-15T11:56:21.488Z,31.78
2023-03-15T11:57:21.508Z,31.61
2023-03-15T11:59:21.571Z,31.43
2023-03-15T12:00:21.566Z,31.49
2023-03-15T12:01:21.602Z,31.31
2023-03-15T12:02:21.665Z,31.25
2023-03-15T12:03:21.658Z,31.24
2023-03-15T12:04:21.642Z,31.19
2023-03-15T12:05:21.654Z,31.11
2023-03-15T12:06:21.658Z,31.17
2023-03-15T12:07:21.675Z,30.97
2023-03-15T12:08:21.674Z,30.89
2023-03-15T12:09:23.302Z,30.90
2023-03-15T12:10:21.716Z,30.85
2023-03-15T12:11:21.645Z,30.79
2023-03-15T12:12:21.607Z,30.70
2023-03-15T12:13:21.568Z,30.62
2023-03-15T12:14:21.548Z,30.62
2023-03-15T12:15:21.527Z,30.65
2023-03-15T12:16:21.574Z,30.55
2023-03-15T12:17:21.449Z,30.45
2023-03-15T12:18:21.420Z,30.45
2023-03-15T12:19:21.435Z,30.37
2023-03-15T12:20:21.374Z,30.24
2023-03-15T12:21:22.240Z,30.29
2023-03-15T12:22:21.316Z,30.26
2023-03-15T12:23:21.298Z,30.22
2023-03-15T12:24:21.331Z,30.16
2023-03-15T12:25:21.226Z,30.12
2023-03-15T12:26:21.189Z,30.04
2023-03-15T12:27:21.153Z,30.13
2023-03-15T12:28:21.117Z,29.98
2023-03-15T12:29:21.088Z,30.01
2023-03-15T12:30:21.072Z,30.03
2023-03-15T12:31:21.059Z,29.83
2023-03-15T12:32:21.124Z,29.64
2023-03-15T12:33:20.972Z,29.59
2023-03-15T12:34:20.952Z,29.65
2023-03-15T12:35:20.927Z,29.68
2023-03-15T12:36:20.895Z,29.57
2023-03-15T12:37:20.864Z,29.41
2023-03-15T12:38:20.842Z,29.39
2023-03-15T12:39:20.852Z,29.26
2023-03-15T12:40:20.786Z,29.35
2023-03-15T12:41:20.754Z,29.33
2023-03-15T12:42:20.756Z,29.17
2023-03-15T12:43:20.702Z,29.13
2023-03-15T12:44:20.748Z,29.03
2023-03-15T12:45:20.710Z,29.08
2023-03-15T12:53:21.247Z,28.69
2023-03-15T13:25:20.779Z,27.29
2023-03-15T16:37:20.615Z,26.58
2023-03-15T16:38:20.618Z,26.71
2023-03-15T16:39:20.612Z,26.72
2023-03-15T17:32:20.924Z,27.85
2023-03-15T18:13:21.409Z,27.94
2023-03-15T18:15:20.877Z,27.94
2023-03-15T18:22:20.623Z,27.98
2023-03-15T18:23:20.640Z,27.99
2023-03-15T18:24:20.660Z,28.02
2023-03-15T18:25:20.701Z,28.05
2023-03-15T18:26:20.714Z,28.08
2023-03-15T18:27:20.744Z,28.06
2023-03-15T18:28:20.760Z,28.09
2023-03-15T18:29:20.786Z,28.10
2023-03-15T18:30:20.828Z,28.12
2023-03-15T18:31:20.863Z,28.16
2023-03-15T18:32:20.865Z,28.02
2023-03-15T18:33:20.882Z,28.12
2023-03-15T18:34:20.908Z,28.12
2023-03-15T18:35:20.939Z,28.09
2023-03-15T18:36:21.058Z,28.12
2023-03-15T18:37:21.021Z,28.17
2023-03-15T18:38:20.994Z,28.21
2023-03-15T18:39:21.018Z,28.17
2023-03-15T18:40:21.041Z,28.20
2023-03-15T18:41:21.155Z,28.21
2023-03-15T18:45:21.182Z,28.21
2023-03-15T18:46:21.275Z,28.15
2023-03-15T18:47:21.231Z,28.17
2023-03-15T18:48:34.143Z,28.22
2023-03-15T18:49:22.256Z,28.20
2023-03-15T18:50:21.247Z,28.20
2023-03-15T18:51:21.317Z,28.15
2023-03-15T18:52:21.261Z,28.16
2023-03-15T18:53:21.210Z,28.20
2023-03-15T18:54:21.187Z,28.22
2023-03-15T18:55:21.220Z,28.15
2023-03-15T18:56:21.179Z,28.19
2023-03-15T18:57:21.153Z,28.16
2023-03-15T18:58:21.134Z,28.24
2023-03-15T18:59:21.140Z,28.18
2023-03-15T19:00:21.131Z,28.22
2023-03-15T19:01:21.988Z,28.21
2023-03-15T19:02:21.199Z,28.22
2023-03-15T19:03:21.174Z,28.21
2023-03-15T19:04:21.210Z,28.22
2023-03-15T19:05:21.237Z,28.22
2023-03-15T19:06:21.331Z,28.26
2023-03-15T19:07:21.307Z,28.28
2023-03-15T19:08:21.352Z,28.23
2023-03-15T19:09:21.367Z,28.19
2023-03-15T19:10:21.388Z,28.25
2023-03-15T19:11:21.415Z,28.26
2023-03-15T19:12:21.452Z,28.26
2023-03-15T19:13:21.489Z,28.29
2023-03-15T19:14:21.541Z,28.33
2023-03-15T19:15:21.570Z,28.27
2023-03-15T19:16:21.620Z,28.32
2023-03-15T19:17:21.713Z,28.32
2023-03-15T19:18:21.646Z,28.37
2023-03-15T19:19:21.706Z,28.29
2023-03-15T19:20:21.716Z,28.33
2023-03-15T19:21:21.752Z,28.29
2023-03-15T19:22:21.796Z,28.31
2023-03-15T19:23:21.825Z,28.29
2023-03-15T19:24:21.879Z,28.22
2023-03-15T19:25:21.888Z,28.29
2023-03-15T19:26:21.962Z,28.31
2023-03-15T19:27:22.892Z,28.23
2023-03-15T19:28:22.076Z,28.29
2023-03-15T19:29:22.055Z,28.33
2023-03-15T19:30:22.198Z,28.33
2023-03-15T19:31:22.233Z,28.34
2023-03-15T19:32:22.301Z,28.29
2023-03-15T19:33:22.219Z,28.31
2023-03-15T19:34:22.331Z,28.33
2023-03-15T19:35:22.344Z,28.31
2023-03-15T19:36:22.902Z,28.34
2023-03-15T19:37:22.374Z,28.34
2023-03-15T19:38:22.430Z,28.36
2023-03-15T19:39:22.461Z,28.30
2023-03-15T19:40:22.520Z,28.40
2023-03-15T19:41:22.548Z,28.42
2023-03-15T19:42:22.597Z,28.42
2023-03-15T19:43:22.639Z,28.37
2023-03-15T19:44:22.669Z,28.42
2023-03-15T19:45:22.732Z,28.42
2023-03-15T19:46:22.993Z,28.34
2023-03-15T19:47:22.814Z,28.34
2023-03-15T19:48:22.889Z,28.40
2023-03-15T19:49:23.010Z,28.34
2023-03-15T19:50:23.037Z,28.31
2023-03-15T19:51:23.013Z,28.37
2023-03-15T19:52:23.037Z,28.36
2023-03-15T19:53:23.089Z,28.38
2023-03-15T19:54:23.136Z,28.37
2023-03-15T19:55:23.191Z,28.38
2023-03-15T19:56:23.234Z,28.32
2023-03-15T19:57:23.270Z,28.35
2023-03-15T19:58:23.906Z,28.32
2023-03-15T19:59:23.370Z,28.35
2023-03-15T20:00:24.045Z,28.40
2023-03-15T20:01:23.557Z,28.44
2023-03-15T20:02:23.509Z,28.38
2023-03-15T20:03:23.559Z,28.33
2023-03-15T20:04:23.639Z,28.39
2023-03-15T20:05:23.678Z,28.36
2023-03-15T20:06:23.706Z,28.38
2023-03-15T20:07:23.754Z,28.36
2023-03-15T20:08:25.346Z,28.44
2023-03-15T20:09:23.902Z,28.45
2023-03-15T20:10:24.389Z,28.44
2023-03-15T20:11:24.005Z,28.36
2023-03-15T20:12:24.045Z,28.40
2023-03-15T20:13:24.092Z,28.47
2023-03-15T20:14:24.136Z,28.45
2023-03-15T20:15:24.192Z,28.37
2023-03-15T20:16:24.291Z,28.39
2023-03-15T20:17:24.308Z,28.36
2023-03-15T20:18:24.357Z,28.43
2023-03-15T20:19:24.392Z,28.49
2023-03-15T20:20:24.681Z,28.47
2023-03-15T20:21:24.523Z,28.44
2023-03-15T20:22:24.551Z,28.47
2023-03-15T20:23:25.428Z,28.46
2023-03-15T20:24:24.683Z,28.42
2023-03-15T20:25:24.722Z,28.46
2023-03-15T20:26:24.824Z,28.46
2023-03-15T20:27:24.834Z,28.44
2023-03-15T20:28:24.916Z,28.39
2023-03-15T20:29:24.957Z,28.40
2023-03-15T20:30:25.368Z,28.40
2023-03-15T20:31:25.083Z,28.43
2023-03-15T20:32:25.117Z,28.46
2023-03-15T20:33:25.147Z,28.53
2023-03-15T20:34:25.193Z,28.49
2023-03-15T20:35:25.255Z,28.44
2023-03-15T20:36:25.331Z,28.44
2023-03-15T20:37:25.372Z,28.36
2023-03-15T20:38:25.415Z,28.37
2023-03-15T20:39:25.536Z,28.36
2023-03-15T20:40:25.720Z,28.36
2023-03-15T20:41:25.595Z,28.34
2023-03-15T20:42:25.936Z,28.40
2023-03-15T20:43:25.706Z,28.36
2023-03-15T20:44:25.763Z,28.33
2023-03-15T20:45:25.824Z,28.38
2023-03-15T20:46:25.910Z,28.36
2023-03-15T20:47:26.029Z,28.36
2023-03-15T20:48:26.038Z,28.36
2023-03-15T20:49:28.857Z,28.36
2023-03-15T20:50:26.031Z,28.30
2023-03-15T20:51:26.020Z,28.37
2023-03-15T20:52:26.017Z,28.34
2023-03-15T20:53:26.050Z,28.34
2023-03-15T20:54:26.008Z,28.35
2023-03-15T21:20:25.966Z,28.28
2023-03-15T21:21:25.793Z,28.28
2023-03-15T21:23:25.778Z,28.19
2023-03-15T21:24:25.766Z,28.20
2023-03-15T21:25:25.752Z,28.21
2023-03-15T21:26:25.792Z,28.19
2023-03-15T21:27:25.885Z,28.21
2023-03-15T21:28:25.923Z,28.18
2023-03-15T21:29:25.976Z,28.20
2023-03-15T21:30:26.156Z,28.20
2023-03-15T21:31:26.973Z,28.18
2023-03-15T21:32:26.262Z,28.18
2023-03-15T21:33:26.221Z,28.19
2023-03-15T21:34:26.266Z,28.20
2023-03-15T21:35:26.334Z,28.16
2023-03-15T21:36:26.367Z,28.15
2023-03-15T21:37:26.408Z,28.19
2023-03-15T21:38:26.474Z,28.19
2023-03-15T21:39:26.522Z,28.16
2023-03-15T21:40:26.570Z,28.13
2023-03-15T21:41:26.686Z,28.15
2023-03-15T21:42:26.671Z,28.13
2023-03-15T21:43:26.754Z,28.15
2023-03-15T21:44:27.432Z,28.13
2023-03-15T21:45:26.937Z,28.13
2023-03-15T21:46:26.940Z,28.10
2023-03-15T21:47:26.969Z,28.14
2023-03-15T21:48:27.014Z,28.13
2023-03-15T21:49:27.097Z,28.10
2023-03-15T21:50:28.009Z,28.13
2023-03-15T21:51:27.150Z,28.12
2023-03-15T21:52:27.207Z,28.10
2023-03-15T21:53:27.268Z,28.12
2023-03-15T21:54:27.310Z,28.09
2023-03-15T21:55:27.369Z,28.12
2023-03-15T21:56:27.434Z,28.12
2023-03-15T21:59:27.545Z,28.07
2023-03-15T22:00:27.596Z,28.03
2023-03-15T22:01:27.705Z,27.99
2023-03-15T22:02:27.731Z,28.00
2023-03-15T22:03:27.780Z,28.02
2023-03-15T22:04:27.817Z,28.02
2023-03-15T22:05:27.848Z,28.02
2023-03-15T22:06:27.884Z,28.00
2023-03-15T22:07:28.040Z,27.93
2023-03-15T22:08:27.964Z,28.02
2023-03-15T22:09:27.985Z,27.97
2023-03-15T23:41:29.385Z,27.35
2023-03-15T23:42:29.397Z,27.37
2023-03-15T23:43:29.425Z,27.37
2023-03-15T23:44:29.410Z,27.31
2023-03-15T23:45:29.421Z,27.32
2023-03-15T23:46:29.470Z,27.28
2023-03-15T23:47:29.477Z,27.26
2023-03-15T23:48:29.397Z,27.32
2023-03-15T23:49:29.401Z,27.29
2023-03-15T23:50:29.777Z,27.22
2023-03-15T23:51:29.386Z,27.25
2023-03-15T23:52:29.393Z,27.24
2023-03-15T23:53:29.441Z,27.25
2023-03-15T23:54:29.402Z,27.22
2023-03-15T23:55:29.401Z,27.19
2023-03-15T23:56:29.401Z,27.14
2023-03-15T23:57:29.396Z,27.14
2023-03-15T23:58:29.402Z,27.18
2023-03-15T23:59:29.401Z,27.15
